createdAt,value
2022-11-09T00:02:40.297Z,5.05
2022-11-09T00:07:46.578Z,5.25
2022-11-09T00:12:49.391Z,4.82
2022-11-09T00:23:09.255Z,4.88
2022-11-09T00:28:19.740Z,5.07
2022-11-09T00:33:23.544Z,4.95
2022-11-09T00:38:26.483Z,4.72
2022-11-09T00:43:29.345Z,5.30
2022-11-09T00:48:33.206Z,4.38
2022-11-09T00:53:38.388Z,4.75
2022-11-09T00:58:41.607Z,4.30
2022-11-09T01:03:46.237Z,4.95
2022-11-09T01:08:49.653Z,5.00
2022-11-09T01:14:11.411Z,4.65
2022-11-09T01:19:14.481Z,4.15
2022-11-09T01:24:17.542Z,4.90
2022-11-09T01:29:20.369Z,3.90
2022-11-09T01:34:23.385Z,4.50
2022-11-09T01:39:27.025Z,4.63
2022-11-09T01:44:30.610Z,4.18
2022-11-09T01:49:34.838Z,4.93
2022-11-09T01:54:42.074Z,4.80
2022-11-09T01:59:48.449Z,4.07
2022-11-09T02:04:56.658Z,4.75
2022-11-09T02:10:18.390Z,4.22
2022-11-09T02:15:23.476Z,4.35
2022-11-09T02:20:29.528Z,4.40
2022-11-09T02:25:35.426Z,4.63
2022-11-09T02:30:58.460Z,3.97
2022-11-09T02:36:02.177Z,4.22
2022-11-09T02:41:05.176Z,4.10
2022-11-09T02:46:08.113Z,5.13
2022-11-09T02:51:11.210Z,3.95
2022-11-09T02:56:15.842Z,5.00
2022-11-09T03:01:18.896Z,4.60
2022-11-09T03:06:34.209Z,4.18
2022-11-09T03:11:40.457Z,4.53
2022-11-09T03:16:49.152Z,4.93
2022-11-09T03:21:53.349Z,4.10
2022-11-09T03:27:18.777Z,4.00
2022-11-09T03:32:24.442Z,4.20
2022-11-09T03:37:28.878Z,4.13
2022-11-09T03:42:31.916Z,4.30
2022-11-09T03:47:36.005Z,6.07
2022-11-09T03:52:39.389Z,4.93
2022-11-09T03:57:42.183Z,3.72
2022-11-09T04:02:45.763Z,4.47
2022-11-09T04:07:51.862Z,4.22
2022-11-09T04:12:54.815Z,4.88
2022-11-09T04:18:04.138Z,4.03
2022-11-09T04:23:07.619Z,4.20
2022-11-09T04:28:12.638Z,3.15
2022-11-09T04:33:23.093Z,3.47
2022-11-09T04:38:25.958Z,4.28
2022-11-09T04:43:37.324Z,3.47
2022-11-09T04:48:40.334Z,3.15
2022-11-09T04:53:43.221Z,3.28
2022-11-09T04:58:46.391Z,4.05
2022-11-09T05:03:49.333Z,3.00
2022-11-09T05:08:52.635Z,2.85
2022-11-09T05:13:56.430Z,2.90
2022-11-09T05:18:59.985Z,4.10
2022-11-09T05:24:03.124Z,3.05
2022-11-09T05:29:09.417Z,2.80
2022-11-09T05:34:14.265Z,3.05
2022-11-09T05:44:22.376Z,3.17
2022-11-09T05:49:25.650Z,3.58
2022-11-09T05:54:30.404Z,3.80
2022-11-09T05:59:34.186Z,3.55
2022-11-09T06:04:38.645Z,3.30
2022-11-09T06:09:41.480Z,2.83
2022-11-09T06:14:44.413Z,4.07
2022-11-09T06:19:47.261Z,3.63
2022-11-09T06:24:50.173Z,3.60
2022-11-09T06:29:52.945Z,4.38
2022-11-09T06:34:56.309Z,3.60
2022-11-09T06:39:59.121Z,3.72
2022-11-09T06:45:04.455Z,4.10
2022-11-09T06:50:09.637Z,3.65
2022-11-09T06:55:20.515Z,4.05
2022-11-09T07:00:24.777Z,4.18
2022-11-09T07:05:28.341Z,4.45
2022-11-09T07:10:32.409Z,5.78
2022-11-09T07:15:37.457Z,4.55
2022-11-09T07:20:40.980Z,6.53
2022-11-09T07:25:43.973Z,4.05
2022-11-09T07:30:52.020Z,4.60
2022-11-09T07:35:54.907Z,5.68
2022-11-09T07:41:00.771Z,4.45
2022-11-09T07:46:04.582Z,5.10
2022-11-09T07:51:08.711Z,6.10
2022-11-09T07:56:12.620Z,4.93
2022-11-09T08:01:15.407Z,4.75
2022-11-09T08:06:19.930Z,5.80
2022-11-09T08:11:24.199Z,5.30
2022-11-09T08:16:27.478Z,3.28
2022-11-09T08:21:32.620Z,4.53
2022-11-09T08:26:35.895Z,4.70
2022-11-09T08:31:39.761Z,5.93
2022-11-09T08:36:42.677Z,4.87
2022-11-09T08:41:45.459Z,5.07
2022-11-09T08:46:48.333Z,6.15
2022-11-09T08:51:52.725Z,6.60
2022-11-09T08:56:56.275Z,5.93
2022-11-09T09:01:59.912Z,6.70
2022-11-09T09:07:02.970Z,5.60
2022-11-09T09:12:09.647Z,5.10
2022-11-09T09:17:13.183Z,3.50
2022-11-09T09:22:18.126Z,3.92
2022-11-09T09:27:21.019Z,5.70
2022-11-09T09:32:23.888Z,5.40
2022-11-09T09:37:27.215Z,5.15
2022-11-09T09:42:36.413Z,4.28
2022-11-09T09:47:42.790Z,4.40
2022-11-09T09:53:17.683Z,4.00
2022-11-09T09:58:26.416Z,4.80
2022-11-09T10:03:29.199Z,4.60
2022-11-09T10:08:32.096Z,4.47
2022-11-09T10:14:01.232Z,4.75
2022-11-09T10:19:41.513Z,4.65
2022-11-09T10:30:31.986Z,4.10
2022-11-09T10:35:58.188Z,4.30
2022-11-09T10:41:03.599Z,5.28
2022-11-09T10:46:25.326Z,3.80
2022-11-09T10:51:47.617Z,4.72
2022-11-09T10:57:17.358Z,5.63
2022-11-09T11:02:43.415Z,4.78
2022-11-09T11:08:13.394Z,4.78
2022-11-09T11:13:36.433Z,3.63
2022-11-09T11:18:58.944Z,4.43
2022-11-09T11:24:28.253Z,4.72
2022-11-09T11:29:56.612Z,5.05
2022-11-09T11:35:30.863Z,4.18
2022-11-09T11:41:12.721Z,4.72
2022-11-09T11:46:44.602Z,3.75
2022-11-09T11:52:19.834Z,4.03
2022-11-09T11:58:09.786Z,4.43
2022-11-09T12:04:00.062Z,4.60
2022-11-09T12:09:21.795Z,3.60
2022-11-09T12:15:01.686Z,4.55
2022-11-09T12:20:32.326Z,3.63
2022-11-09T12:25:56.217Z,4.50
2022-11-09T12:36:41.356Z,5.28
2022-11-09T12:42:12.654Z,4.40
2022-11-09T12:47:44.776Z,4.05
2022-11-09T12:53:07.349Z,3.55
2022-11-09T12:58:30.145Z,3.72
2022-11-09T13:03:56.284Z,3.47
2022-11-09T13:09:24.549Z,4.15
2022-11-09T13:14:46.298Z,4.50
2022-11-09T13:20:52.794Z,4.70
2022-11-09T13:26:21.637Z,4.38
2022-11-09T13:32:04.552Z,3.58
2022-11-09T13:37:36.022Z,4.00
2022-11-09T13:42:58.173Z,3.83
2022-11-09T13:48:38.198Z,3.35
2022-11-09T13:54:00.518Z,2.90
2022-11-09T13:59:46.883Z,2.85
2022-11-09T14:05:23.348Z,2.78
2022-11-09T14:10:54.657Z,3.00
2022-11-09T14:16:22.476Z,3.28
2022-11-09T14:21:45.956Z,3.20
2022-11-09T14:27:07.309Z,3.13
2022-11-09T14:32:34.351Z,2.80
2022-11-09T14:37:56.097Z,1.95
2022-11-09T14:43:36.943Z,3.13
2022-11-09T14:49:04.907Z,2.45
2022-11-09T14:54:27.918Z,2.85
2022-11-09T14:59:49.475Z,2.78
2022-11-09T15:05:30.322Z,2.92
2022-11-09T15:10:54.433Z,2.90
2022-11-09T15:16:23.738Z,2.80
2022-11-09T15:21:45.829Z,3.20
2022-11-09T15:27:27.325Z,3.28
2022-11-09T15:33:20.027Z,3.35
2022-11-09T15:38:42.511Z,2.58
2022-11-09T15:44:04.244Z,3.13
2022-11-09T15:49:26.829Z,2.97
2022-11-09T15:54:48.530Z,2.83
2022-11-09T16:00:19.291Z,2.80
2022-11-09T16:05:42.115Z,3.05
2022-11-09T16:11:08.022Z,2.85
2022-11-09T16:16:29.914Z,2.90
2022-11-09T16:21:54.808Z,2.90
2022-11-09T16:27:47.796Z,2.05
2022-11-09T16:32:58.021Z,2.85
2022-11-09T16:38:19.763Z,2.50
2022-11-09T16:43:42.938Z,3.28
2022-11-09T16:49:04.401Z,3.05
2022-11-09T16:54:27.189Z,3.42
2022-11-09T16:59:49.761Z,3.70
2022-11-09T17:05:10.974Z,3.50
2022-11-09T17:10:32.565Z,3.05
2022-11-09T17:15:54.081Z,2.35
2022-11-09T17:21:15.590Z,4.13
2022-11-09T17:26:37.672Z,3.80
2022-11-09T17:31:58.858Z,3.22
2022-11-09T17:37:20.445Z,3.42
2022-11-09T17:42:42.278Z,3.63
2022-11-09T17:48:04.548Z,2.83
2022-11-09T17:53:27.817Z,3.28
2022-11-09T17:58:49.437Z,4.07
2022-11-09T18:04:11.444Z,3.33
2022-11-09T18:09:41.524Z,2.97
2022-11-09T18:15:04.216Z,3.10
2022-11-09T18:20:25.609Z,2.85
2022-11-09T18:25:56.620Z,3.40
2022-11-09T18:31:18.093Z,3.60
2022-11-09T18:36:41.622Z,3.42
2022-11-09T18:42:03.153Z,3.13
2022-11-09T18:47:25.558Z,3.40
2022-11-09T18:52:46.964Z,3.10
2022-11-09T18:58:08.372Z,3.50
2022-11-09T19:03:30.386Z,4.38
2022-11-09T19:09:10.349Z,3.30
2022-11-09T19:14:31.738Z,3.78
2022-11-09T19:19:52.990Z,4.05
2022-11-09T19:25:15.382Z,5.47
2022-11-09T19:30:36.617Z,4.55
2022-11-09T19:36:28.094Z,3.65
2022-11-09T19:41:40.672Z,3.53
2022-11-09T19:47:02.008Z,4.05
2022-11-09T19:52:23.603Z,4.00
2022-11-09T19:57:45.256Z,4.28
2022-11-09T20:03:06.857Z,3.85
2022-11-09T20:08:28.474Z,4.50
2022-11-09T20:13:49.687Z,4.70
2022-11-09T20:19:12.259Z,4.45
2022-11-09T20:24:33.331Z,5.90
2022-11-09T20:29:55.042Z,10.05
2022-11-09T20:35:16.407Z,8.98
2022-11-09T20:40:37.901Z,6.07
2022-11-09T20:46:25.600Z,7.97
2022-11-09T20:51:47.488Z,6.63
2022-11-09T20:57:08.748Z,6.22
2022-11-09T21:02:29.875Z,6.30
2022-11-09T21:07:53.580Z,5.22
2022-11-09T21:13:15.576Z,4.97
2022-11-09T21:18:36.996Z,4.85
2022-11-09T21:24:17.609Z,6.18
2022-11-09T21:29:50.914Z,5.80
2022-11-09T21:35:12.727Z,4.63
2022-11-09T21:40:33.986Z,4.90
2022-11-09T21:45:56.045Z,5.47
2022-11-09T21:51:19.377Z,5.15
2022-11-09T21:56:40.834Z,5.00
2022-11-09T22:02:02.246Z,4.85
2022-11-09T22:07:23.836Z,5.35
2022-11-09T22:13:03.872Z,5.93
2022-11-09T22:18:49.565Z,5.10
2022-11-09T22:24:12.194Z,5.88
2022-11-09T22:29:33.408Z,4.65
2022-11-09T22:34:55.380Z,5.90
2022-11-09T22:40:23.511Z,5.72
2022-11-09T22:45:45.638Z,5.28
2022-11-09T22:51:07.281Z,5.55
2022-11-09T22:56:29.188Z,5.95
2022-11-09T23:01:50.621Z,7.05
2022-11-09T23:07:12.099Z,6.53
2022-11-09T23:12:52.661Z,5.65
2022-11-09T23:18:32.560Z,5.38
2022-11-09T23:23:54.860Z,5.35
2022-11-09T23:29:16.354Z,6.97
2022-11-09T23:34:37.885Z,5.78
2022-11-09T23:40:00.043Z,5.43
2022-11-09T23:45:21.264Z,5.07
2022-11-09T23:50:42.814Z,7.30
2022-11-09T23:56:05.974Z,7.00
